Weather observations for the past three days for
Grand Prairie, Grand Prairie Municipal Airport
Imperial (Metric)
Date Time (cdt) Wind (mph) Vis. (mi.) Weather Sky Cond. Temperature (ºF) Relative Humidity Wind Chill (°F) Heat Index (°F) Pressure Precipitation (in)
Air Dwpt 6 hour altimeter (in) sea level (mb) 1 hr 3 hr 6 hr
Max. Min.
10 16:35 N 21 G 28 10.00 Overcast and Breezy SCT011 BKN026 OVC040 68.9 62.2 79% 30.06 0.0
10 16:15 NE 14 10.00 Overcast SCT024 OVC040 71.6 61.7 71% 30.05 0.0
10 15:55 NE 13 G 17 10.00 Overcast OVC038 72.5 61.9 69% 30.03 0.0
10 15:35 NE 9 10.00 Overcast BKN040 OVC046 73.6 62.8 69% 30.03 0.0
10 15:15 E 12 10.00 Overcast BKN038 OVC050 73.6 63.1 70% 30.03 0.0
10 14:55 NE 10 10.00 Overcast OVC036 71.6 61.9 72% 30.04 0.0
10 14:35 E 10 10.00 Overcast OVC036 70.3 61.7 74% 30.05 0.0
10 14:15 E 13 10.00 Overcast SCT011 OVC034 69.4 61.5 76% 30.04 0.0
10 13:55 NE 13 G 20 10.00 Overcast SCT011 OVC032 68.9 61.3 77% 30.03 0.0
10 13:35 NE 17 G 23 10.00 Overcast BKN009 OVC032 68.9 61.7 78% 30.03 0.0
10 13:15 E 15 G 20 10.00 Overcast BKN009 BKN019 OVC044 70.3 62.8 77% 30.03 0.0
10 12:55 NE 13 G 18 10.00 Overcast BKN033 OVC042 69.4 61.2 81.1 68.4 75% 30.03 0.0
10 12:35 NE 18 G 26 10.00 Overcast OVC031 69.1 58.3 69% 30.04 0.0
10 12:15 N 24 G 29 10.00 Overcast and Breezy SCT026 BKN033 OVC050 76.6 60.4 57% 78 30.04 0.0
10 11:55 S 5 10.00 Mostly Cloudy BKN050 BKN075 79.9 64.4 59% 82 30 0.0
10 11:35 S 12 G 16 10.00 Fair CLR 81.1 64.2 57% 83 29.98 0.0
10 11:15 S 12 G 16 10.00 Fair CLR 80.2 63.1 56% 82 29.96 0.0
10 10:55 SE 14 G 22 10.00 Fair CLR 79.7 62.1 55% 81 29.95 0.0
10 10:35 SE 16 G 22 10.00 Fair CLR 78.8 62.4 57% 80 29.95 0.0
10 10:15 SE 14 G 20 10.00 Fair CLR 76.1 60.1 58% 78 29.95 0.0
10 09:55 SE 8 G 17 10.00 Fair CLR 74.7 59.2 59% 29.96 0.0
10 09:35 SE 10 G 16 10.00 Mostly Cloudy SCT041 SCT060 BKN075 72.3 58.1 61% 29.97 0.0
10 09:15 SE 10 10.00 Overcast OVC039 71.8 57.6 61% 29.98 0.0
10 08:55 E 9 10.00 Overcast OVC037 70.9 57 62% 30 0.0
10 08:35 SE 8 10.00 Overcast OVC035 70.5 57.2 63% 29.99 0.0
10 08:15 SE 9 10.00 Overcast OVC030 70 57.2 64% 29.98 0.0
10 07:55 E 8 G 16 10.00 Overcast OVC030 69.8 57.4 65% 29.98 0.0
10 07:35 E 8 10.00 Overcast OVC030 69.8 57.6 65% 29.97 0.0
10 07:15 E 7 10.00 Overcast OVC030 69.8 57.9 66% 29.96 0.0
10 06:55 E 8 10.00 Overcast OVC030 69.4 57.7 75.6 69.4 67% 29.96 0.0
10 06:35 E 9 10.00 Overcast OVC030 69.6 57.7 66% 29.96 0.0
10 06:15 E 14 G 18 10.00 Overcast OVC028 70.2 58.1 66% 29.95 0.0
10 05:55 E 13 G 23 10.00 Overcast BKN025 OVC030 70.7 58.5 65% 29.95 0.0
10 05:35 E 16 G 22 10.00 Overcast OVC021 71.6 59.9 67% 29.95 0.0
10 05:15 E 17 G 30 10.00 Overcast BKN019 OVC026 72.3 60.8 67% 29.95 0.0
10 04:55 E 9 10.00 Overcast OVC027 74.7 66.4 76% 29.93 0.0
10 04:35 NE 9 10.00 Mostly Cloudy BKN027 BKN080 74.3 66.4 76% 29.93 0.0
10 04:15 NE 7 10.00 Partly Cloudy SCT041 73.4 66.4 79% 29.91 0.0
10 03:55 NE 3 10.00 Partly Cloudy SCT041 73.4 66.2 78% 29.89 0.0
10 03:35 NE 5 10.00 Fair CLR 72.9 65.8 79% 29.89 0.0
10 03:15 E 3 10.00 Fair CLR 72.7 64.9 77% 29.86 0.0
10 02:55 Calm 10.00 Fair CLR 74.3 64.8 72% 29.85 0.0
10 02:35 Calm 10.00 Fair CLR 74.3 64.4 71% 29.85 0.0
10 02:15 E 5 10.00 Fair CLR 74.8 64.2 70% 29.86 0.0
10 01:55 N 5 10.00 Fair CLR 74.5 64.4 71% 29.87 0.0
10 01:35 N 13 10.00 Fair CLR 75.2 64 68% 77 29.88 0.0
10 01:15 S 3 10.00 Fair CLR 75.2 63.5 67% 77 29.83 0.0
10 00:55 SE 5 10.00 Fair CLR 75.7 63 88.2 75.7 65% 78 29.82 0.0
10 00:35 SE 5 10.00 Fair CLR 76.6 62.6 62% 78 29.82 0.0
10 00:15 SE 6 10.00 Fair CLR 77 62.2 60% 79 29.81 0.0
09 23:55 SE 7 10.00 Fair CLR 77 62.1 60% 79 29.8 0.0
09 23:35 SE 7 10.00 Fair CLR 77 61.9 60% 79 29.81 0.0
09 23:15 SE 7 10.00 Fair CLR 77.5 61.9 59% 79 29.81 0.0
09 22:55 SE 6 10.00 Fair CLR 78.1 61.7 57% 80 29.82 0.0
09 22:35 SE 7 10.00 Fair CLR 78.8 61.7 56% 80 29.82 0.0
09 22:15 SE 7 10.00 Fair CLR 79.2 61 54% 80 29.82 0.0
09 21:55 SE 5 10.00 Fair CLR 79.7 60.1 51% 81 29.81 0.0
09 21:35 SE 3 10.00 Fair CLR 80.6 59.5 49% 81 29.81 0.0
09 21:15 SE 3 10.00 Fair CLR 81.5 59.2 47% 82 29.8 0.0
09 20:55 E 6 10.00 Fair CLR 81.7 59.4 47% 82 29.79 0.0
09 20:35 E 5 10.00 Fair CLR 82.6 60.1 47% 83 29.79 0.0
09 20:15 E 6 10.00 Fair CLR 83.7 59.2 44% 84 29.78 0.0
09 19:55 E 8 10.00 Fair CLR 84.9 60.4 44% 85 29.78 0.0
09 19:35 E 9 10.00 Fair CLR 86.2 61.3 43% 86 29.77 0.0
09 19:15 E 3 10.00 Fair CLR 87.8 55.9 34% 86 29.77 0.0
09 18:55 Calm 10.00 Fair CLR 88.2 56.8 89.2 85.1 35% 87 29.77 0.0
09 18:35 Calm 10.00 Fair CLR 88.5 55.2 32% 87 29.77 0.0
09 18:15 E 3 10.00 Fair CLR 88.9 55.8 33% 87 29.77 0.0
09 17:55 E 3 10.00 Fair CLR 88.7 55.8 33% 87 29.78 0.0
09 17:35 NE 6 10.00 Fair CLR 88.9 55.4 32% 87 29.78 0.0
09 17:15 NE 6 10.00 Fair CLR 88.5 54.5 31% 87 29.77 0.0
09 16:55 E 6 10.00 Fair CLR 88.5 57.2 35% 87 29.78 0.0
09 16:35 NE 7 10.00 Fair CLR 87.8 57.4 36% 87 29.78 0.0
09 16:15 NE 6 10.00 Fair CLR 88.2 60.3 39% 88 29.79 0.0
09 15:35 NE 8 10.00 Fair CLR 88 60.6 40% 88 29.8 0.0
09 15:15 N 6 10.00 Fair CLR 88.2 56.5 34% 87 29.81 0.0
09 14:55 E 5 10.00 Fair CLR 87.6 56.7 35% 86 29.82 0.0
09 14:35 N 3 10.00 Fair CLR 87.6 54.5 32% 86 29.82 0.0
09 14:15 Calm 10.00 Fair CLR 87.3 59.4 39% 87 29.83 0.0
09 13:55 NE 5 10.00 Fair CLR 86.9 59.2 39% 86 29.83 0.0
09 13:35 N 5 10.00 Fair CLR 87.4 59.7 39% 87 29.83 0.0
09 13:15 N 8 10.00 Fair CLR 85.5 58.6 40% 85 29.84 0.0
09 12:55 N 3 10.00 Fair CLR 85.8 58.1 85.8 71.6 39% 85 29.85 0.0
09 12:35 Calm 10.00 Fair CLR 85.3 57.9 39% 85 29.85 0.0
09 12:15 NW 7 10.00 Fair CLR 84.4 57.4 40% 84 29.86 0.0
09 11:55 NW 7 10.00 Fair CLR 83.5 58.6 43% 83 29.86 0.0
09 11:35 NW 3 10.00 Fair CLR 83.3 58.1 42% 83 29.86 0.0
09 11:15 Calm 10.00 Fair CLR 82.2 58.8 45% 82 29.86 0.0
09 10:55 NW 6 10.00 Fair CLR 81.7 57.9 44% 82 29.86 0.0
09 10:35 N 7 10.00 Fair CLR 80.8 60.6 50% 82 29.86 0.0
09 10:15 NW 7 10.00 Fair CLR 79.3 60.6 53% 80 29.86 0.0
09 09:55 N 5 10.00 Fair CLR 78.3 62.1 58% 80 29.86 0.0
09 09:35 NW 3 10.00 Fair CLR 77.2 63.9 64% 79 29.87 0.0
09 09:15 N 3 10.00 Fair CLR 75.4 64.4 69% 77 29.87 0.0
09 08:55 N 3 10.00 Fair CLR 73.6 64.2 73% 29.86 0.0
09 08:35 NW 5 10.00 Fair CLR 73.2 64 73% 29.86 0.0
09 08:15 N 5 10.00 Fair CLR 72.1 63.7 75% 29.85 0.0
09 07:55 NW 5 10.00 Fair CLR 71.6 63.1 75% 29.85 0.0
09 07:35 NW 3 10.00 Fair CLR 71.6 63.5 76% 29.85 0.0
09 07:15 W 3 10.00 Fair CLR 71.6 64 77% 29.84 0.0
09 06:55 SW 6 10.00 Fair CLR 72.1 64 73.4 70 76% 29.84 0.0
09 06:35 SW 5 10.00 Fair CLR 73 64.4 74% 29.83 0.0
09 06:15 SW 10 10.00 Fair CLR 72.7 64.4 75% 29.82 0.0
09 05:55 SW 6 10.00 Partly Cloudy SCT023 SCT031 SCT040 72 65.3 80% 29.82 0.0
09 05:35 Calm 10.00 Overcast SCT013 BKN021 OVC032 72.5 66.2 81% 29.82 0.0
09 05:15 NW 6 10.00 Mostly Cloudy BKN010 BKN014 71.6 69.3 92% 29.82 0.0
09 04:55 W 7 G 16 7.00 Fair CLR 70.7 70.7 100% 29.79 0.0
09 04:35 S 9 G 17 7.00 Fair CLR 70.5 70.5 100% 29.76 0.0
09 04:15 S 10 7.00 Fair CLR 70.3 70.3 100% 29.75 0.0
09 03:55 SW 13 G 18 7.00 Fair CLR 70.2 70.2 100% 29.76 0.0
09 03:35 S 9 G 23 10.00 Fair CLR 70.3 70.3 100% 29.77 0.0
09 03:15 S 12 10.00 Fair CLR 70 65.5 86% 29.8 0.0
09 02:55 SW 7 10.00 Fair CLR 70.7 65.3 83% 29.83 0.0
09 02:35 SW 8 10.00 Partly Cloudy SCT021 SCT050 71.6 65.5 81% 29.86 0.0
09 02:15 W 6 10.00 Overcast OVC021 72.1 65.8 81% 29.88 0.0
09 01:55 W 6 10.00 Overcast OVC021 71.6 65.7 82% 29.88 0.0
09 01:35 SW 3 10.00 Overcast OVC021 71.8 65.8 82% 29.87 0.0
09 01:15 Calm 10.00 Overcast OVC021 71.6 66 83% 29.88 0.0
09 00:55 Calm 10.00 Mostly Cloudy BKN021 71.6 65.8 73.6 70.5 82% 29.88 0.0
09 00:35 NW 3 10.00 Fair CLR 70.5 65.7 85% 29.87 0.0
09 00:15 Calm 10.00 Fair CLR 71.4 65.7 82% 29.86 0.0
08 23:55 S 3 10.00 Fair CLR 71.6 65.5 81% 29.85 0.0
08 23:35 S 3 10.00 Partly Cloudy SCT017 SCT070 72 65.5 80% 29.85 0.0
08 23:15 NE 3 10.00 Overcast BKN017 OVC070 72.5 65.5 79% 29.87 0.0
08 22:55 Calm 10.00 Overcast OVC019 72.5 65.5 79% 29.85 0.0
08 22:35 SE 5 10.00 Mostly Cloudy BKN019 72.5 65.5 79% 29.84 0.0
08 22:15 SE 6 10.00 Mostly Cloudy BKN021 BKN025 72.5 65.3 78% 29.82 0.0
08 21:55 SE 5 10.00 Overcast OVC021 72.9 65.3 77% 29.83 0.0
08 21:35 S 6 10.00 Overcast OVC023 72.9 65.3 77% 29.81 0.0
08 21:15 SE 6 10.00 Overcast OVC023 73 64.9 76% 29.81 0.0
08 20:55 Calm 10.00 Overcast OVC023 73.4 64.9 75% 29.81 0.0
08 20:35 SE 3 10.00 Overcast OVC023 73.2 64.6 74% 29.81 0.0
08 20:15 SE 5 10.00 Mostly Cloudy BKN023 BKN029 73.2 64.4 74% 29.8 0.0
08 19:55 S 5 10.00 Mostly Cloudy SCT031 BKN050 73 64.2 74% 29.79 0.0
08 19:35 S 5 10.00 Overcast SCT021 OVC050 73.4 64.4 74% 29.79 0.0
08 19:15 SE 5 10.00 Overcast BKN023 OVC050 73.6 64.4 73% 29.79 0.0
08 18:55 Calm 10.00 Overcast OVC023 73.6 64 74.1 68.9 72% 29.8 0.0
08 18:35 SE 3 10.00 Mostly Cloudy BKN023 BKN055 73.4 63.9 72% 29.8 0.0
08 18:15 S 3 10.00 Partly Cloudy SCT025 73.8 63.1 70% 29.8 0.0
08 17:55 SE 5 10.00 Fair CLR 73.4 62.8 70% 29.8 0.0
08 17:35 S 7 10.00 Partly Cloudy SCT028 73.6 62.4 68% 29.8 0.0
08 17:15 S 7 10.00 Partly Cloudy SCT023 72.7 61.7 69% 29.81 0.0
08 16:55 S 7 10.00 Mostly Cloudy BKN025 72.5 61 67% 29.82 0.0
08 16:35 SW 5 10.00 Overcast OVC025 72 61.2 69% 29.83 0.0
08 16:15 S 7 10.00 Mostly Cloudy BKN025 71.4 60.3 68% 29.83 0.0
08 15:55 N 5 10.00 Overcast BKN025 BKN046 OVC120 68.9 60.3 74% 29.83 0.0
08 15:35 SE 10 10.00 Overcast BKN027 BKN060 OVC120 69.8 58.8 68% 29.83 0.0
08 15:15 S 5 10.00 Overcast OVC027 71.1 57.6 63% 29.87 0.0
08 14:55 S 8 10.00 Overcast OVC029 71.8 57.7 61% 29.88 0.0
08 14:35 S 8 10.00 Overcast OVC030 72.5 57.7 60% 29.87 0.0
08 14:15 S 8 10.00 Overcast OVC026 72.9 58.1 60% 29.88 0.0
08 13:55 S 7 10.00 Overcast OVC026 72.5 57.9 60% 29.89 0.0
08 13:35 S 8 10.00 Overcast OVC028 72.7 57.7 60% 29.9 0.0
08 13:15 S 6 10.00 Overcast BKN026 OVC030 73.8 58.1 58% 29.9 0.0
08 12:55 S 5 10.00 Overcast OVC026 73.4 57.9 73.4 59 59% 29.9 0.0
08 12:35 S 6 10.00 Overcast OVC026 71.8 58.1 62% 29.92 0.0
08 12:15 S 6 10.00 Overcast OVC026 71.1 57.6 63% 29.93 0.0
08 11:55 SE 7 10.00 Overcast OVC024 70.9 57.4 63% 29.93 0.0
08 11:35 SE 7 10.00 Overcast BKN024 OVC050 69.3 56.3 64% 29.94 0.0
08 11:15 SE 7 10.00 Overcast OVC024 68 55.6 65% 29.95 0.0
08 10:55 S 5 10.00 Overcast OVC024 67.5 55.4 65% 29.97 0.0
08 10:35 S 6 10.00 Overcast OVC026 67.1 54.9 65% 29.98 0.0
08 10:15 SE 5 10.00 Overcast OVC026 67.5 54.3 63% 29.98 0.0
08 09:55 SE 6 10.00 Overcast SCT022 BKN029 OVC060 67.1 53.6 62% 29.98 0.0
08 09:35 SE 6 10.00 Mostly Cloudy BKN060 67.6 53.1 60% 29.98 0.0
08 09:15 SE 6 10.00 Partly Cloudy SCT060 66.7 53.4 62% 29.98 0.0
08 08:55 SE 6 10.00 Partly Cloudy SCT060 65.5 53.4 65% 29.98 0.0
08 08:35 SE 7 10.00 Fair CLR 64.8 53.8 68% 29.98 0.0
08 08:15 SE 5 10.00 Fair CLR 63.7 54 71% 29.98 0.0
08 07:55 Calm 10.00 Fair CLR 63.1 54.3 73% 29.99 0.0
08 07:35 Calm 10.00 Fair CLR 62.1 55.4 79% 29.98 0.0
08 07:15 Calm 10.00 Partly Cloudy SCT090 59.9 54.5 82% 29.98 0.0
08 06:55 Calm 10.00 Mostly Cloudy BKN090 60.4 54.1 64.4 59.9 80% 29.98 0.0
08 06:35 Calm 10.00 Partly Cloudy SCT080 59.9 53.8 80% 29.98 0.0
08 06:15 Calm 10.00 Mostly Cloudy BKN090 61.9 53.6 74% 29.99 0.0
08 05:55 Calm 10.00 Overcast OVC090 62.2 55 77% 29.98 0.0
08 05:35 SW 3 10.00 Mostly Cloudy BKN100 61 55.8 83% 29.97 0.0
08 05:15 S 3 10.00 Mostly Cloudy BKN100 BKN120 61 55.4 82% 29.96 0.0
08 04:55 Calm 10.00 Overcast OVC090 60.8 55.6 83% 29.96 0.0
08 04:35 Calm 10.00 Mostly Cloudy BKN075 60.4 55.2 83% 29.97 0.0
08 04:15 S 3 10.00 Partly Cloudy SCT085 60.8 55.2 82% 29.97 0.0
08 03:55 S 3 10.00 Partly Cloudy SCT085 SCT100 61.3 54.7 79% 29.97 0.0
08 03:35 SE 5 10.00 Partly Cloudy SCT085 SCT100 61.7 54.5 77% 29.97 0.0
08 03:15 S 3 10.00 Mostly Cloudy BKN075 BKN100 61.7 54.5 77% 29.98 0.0
08 02:55 Calm 10.00 Overcast BKN075 OVC100 64.2 54 69% 30 0.0
08 02:35 Calm 10.00 Overcast BKN075 OVC100 64.4 54 69% 30 0.0
08 02:15 Calm 10.00 Overcast OVC075 63.7 54.5 72% 30 0.0
08 01:55 Calm 10.00 Overcast OVC075 63.1 54.5 74% 30 0.0
08 01:35 Calm 10.00 Overcast OVC075 62.6 54.5 75% 30 0.0
08 01:15 Calm 10.00 Overcast OVC075 63.3 54 72% 30.01 0.0
08 00:55 Calm 10.00 Mostly Cloudy BKN075 63.5 54 67.5 62.6 71% 30.01 0.0
08 00:35 Calm 10.00 Fair CLR 63.7 53.6 70% 30.02 0.0
08 00:15 Calm 10.00 Fair CLR 63.5 53.1 69% 30.02 0.0
07 23:55 Calm 10.00 Fair CLR 63 52.9 70% 30.02 0.0
07 23:35 Calm 10.00 Fair CLR 63.5 52.3 67% 30.02 0.0
07 23:15 SE 3 10.00 Fair CLR 64.4 52.7 66% 30.01 0.0
07 22:55 SE 3 10.00 Fair CLR 64.2 52.9 67% 30 0.0
07 22:35 Calm 10.00 Fair CLR 64.8 52.7 65% 30 0.0
07 22:15 Calm 10.00 Fair CLR 63.9 52.3 66% 29.99 0.0
07 21:55 Calm 10.00 Fair CLR 64.4 52 64% 30 0.0
07 21:35 Calm 10.00 Fair CLR 65.3 51.3 61% 29.99 0.0
07 21:15 S 3 10.00 Fair CLR 64.6 50.9 61% 29.99 0.0
07 20:55 Calm 10.00 Fair CLR 66.2 49.6 55% 29.99 0.0
07 20:35 Calm 10.00 Fair CLR 66.2 49.6 55% 29.99 0.0
07 20:15 S 3 10.00 Fair CLR 66.4 49.8 55% 29.99 0.0
07 19:55 Calm 10.00 Fair CLR 66.9 49.8 54% 29.99 0.0
07 19:35 S 3 10.00 Fair CLR 67.1 49.1 53% 29.98 0.0
07 19:15 S 3 10.00 Fair CLR 67.1 49.3 53% 30 0.0
07 18:55 Calm 10.00 Fair CLR 67.5 49.6 72 67.5 53% 30 0.0
07 18:35 S 5 10.00 Fair CLR 68 50.2 53% 30 0.0
07 18:15 S 5 10.00 Fair CLR 68.2 49.8 52% 30 0.0
07 17:55 SE 5 10.00 Fair CLR 68.4 49.6 51% 30 0.0
07 17:35 SE 6 10.00 Fair CLR 68.5 50 52% 30 0.0
07 17:15 S 8 10.00 Fair CLR 68.9 49.6 50% 30 0.0
07 16:55 SE 7 10.00 Fair CLR 70.2 49.8 49% 30.01 0.0
Date Time (cdt) Wind (mph) Vis. (mi.) Weather Sky Cond. Air Dwpt Max. Min. Relative Humidity Wind Chill (°F) Heat Index (°F) altimeter (in) sea level (mb) 1 hr 3 hr 6 hr
6 hour
Temperature (ºF) Pressure Precipitation (in)